createdAt,value
2018-07-31T00:01:55.769Z,26.36
2018-07-31T00:04:23.781Z,26.29
2018-07-31T00:06:51.776Z,26.15
2018-07-31T00:09:19.779Z,26.01
2018-07-31T00:11:47.828Z,25.97
2018-07-31T00:14:15.817Z,25.85
2018-07-31T00:16:43.807Z,25.74
2018-07-31T00:19:11.802Z,25.74
2018-07-31T00:21:39.812Z,25.74
2018-07-31T00:24:07.848Z,25.75
2018-07-31T00:26:35.863Z,25.73
2018-07-31T00:29:03.887Z,25.73
2018-07-31T00:31:31.856Z,25.66
2018-07-31T00:33:59.876Z,25.67
2018-07-31T00:36:27.872Z,25.77
2018-07-31T00:38:55.920Z,25.82
2018-07-31T00:41:23.912Z,25.73
2018-07-31T00:43:51.929Z,25.68
2018-07-31T00:46:19.920Z,25.79
2018-07-31T00:48:47.900Z,25.83
2018-07-31T00:51:15.944Z,25.83
2018-07-31T00:53:43.947Z,25.78
2018-07-31T00:56:11.942Z,25.85
2018-07-31T00:58:39.940Z,25.85
2018-07-31T01:01:07.936Z,25.83
2018-07-31T01:03:35.934Z,25.96
2018-07-31T01:06:03.920Z,25.77
2018-07-31T01:08:31.931Z,25.67
2018-07-31T01:10:59.985Z,25.73
2018-07-31T01:13:27.962Z,25.82
2018-07-31T01:15:55.953Z,25.74
2018-07-31T01:18:23.972Z,25.67
2018-07-31T01:20:52.536Z,25.59
2018-07-31T01:23:20.708Z,25.74
2018-07-31T01:25:50.796Z,25.56
2018-07-31T01:28:18.793Z,25.52
2018-07-31T01:30:46.771Z,25.47
2018-07-31T01:33:14.776Z,25.38
2018-07-31T01:35:42.776Z,25.35
2018-07-31T01:38:10.772Z,25.39
2018-07-31T01:40:38.785Z,25.42
2018-07-31T01:43:06.932Z,25.47
2018-07-31T01:45:35.038Z,25.39
2018-07-31T01:48:03.049Z,25.29
2018-07-31T01:50:31.085Z,25.21
2018-07-31T01:52:59.232Z,25.22
2018-07-31T01:55:27.272Z,25.30
2018-07-31T01:57:55.272Z,25.29
2018-07-31T02:00:23.492Z,25.18
2018-07-31T02:02:51.485Z,25.14
2018-07-31T02:05:19.481Z,25.19
2018-07-31T02:07:47.482Z,25.24
2018-07-31T02:10:15.500Z,25.20
2018-07-31T02:12:43.565Z,25.11
2018-07-31T02:15:11.564Z,25.15
2018-07-31T02:17:39.572Z,25.15
2018-07-31T02:20:07.608Z,25.08
2018-07-31T02:22:35.644Z,24.99
2018-07-31T02:25:03.666Z,24.91
2018-07-31T02:27:31.664Z,24.93
2018-07-31T02:30:05.116Z,24.92
2018-07-31T02:32:33.106Z,24.97
2018-07-31T02:35:01.106Z,24.92
2018-07-31T02:37:29.212Z,24.82
2018-07-31T02:39:57.240Z,24.80
2018-07-31T02:42:26.520Z,24.75
2018-07-31T02:44:54.556Z,24.73
2018-07-31T02:47:22.557Z,24.90
2018-07-31T02:49:50.561Z,24.92
2018-07-31T02:52:18.611Z,24.95
2018-07-31T02:54:46.592Z,25.09
2018-07-31T02:57:14.597Z,25.20
2018-07-31T02:59:42.608Z,25.20
2018-07-31T03:02:10.662Z,25.11
2018-07-31T03:04:38.652Z,25.19
2018-07-31T03:07:06.833Z,25.24
2018-07-31T03:09:34.848Z,25.07
2018-07-31T03:12:02.872Z,25.09
2018-07-31T03:14:30.876Z,24.94
2018-07-31T03:16:58.900Z,25.01
2018-07-31T03:19:26.925Z,24.92
2018-07-31T03:21:54.960Z,24.83
2018-07-31T03:24:22.962Z,24.76
2018-07-31T03:26:50.984Z,24.67
2018-07-31T03:29:18.985Z,24.56
2018-07-31T03:31:46.984Z,24.68
2018-07-31T03:34:14.985Z,24.58
2018-07-31T03:36:43.119Z,24.58
2018-07-31T03:39:11.349Z,24.63
2018-07-31T03:41:39.433Z,24.67
2018-07-31T03:44:07.596Z,24.60
2018-07-31T03:46:35.615Z,24.54
2018-07-31T03:49:03.610Z,24.69
2018-07-31T03:51:31.620Z,24.56
2018-07-31T03:53:59.705Z,24.53
2018-07-31T03:56:27.800Z,24.40
2018-07-31T03:58:55.818Z,24.47
2018-07-31T04:01:23.951Z,24.45
2018-07-31T04:03:51.934Z,24.40
2018-07-31T04:06:20.156Z,24.45
2018-07-31T04:08:48.165Z,24.48
2018-07-31T04:11:16.160Z,24.45
2018-07-31T04:13:44.153Z,24.43
2018-07-31T04:16:12.162Z,24.46
2018-07-31T04:18:40.181Z,24.52
2018-07-31T04:21:08.193Z,24.51
2018-07-31T04:23:36.194Z,24.45
2018-07-31T04:26:04.197Z,24.46
2018-07-31T04:28:32.197Z,24.31
2018-07-31T04:31:00.209Z,24.18
2018-07-31T04:33:28.242Z,24.14
2018-07-31T04:35:56.368Z,24.18
2018-07-31T04:38:24.325Z,24.17
2018-07-31T04:40:52.325Z,24.18
2018-07-31T04:43:20.324Z,24.15
2018-07-31T04:45:48.328Z,24.10
2018-07-31T04:48:16.397Z,24.28
2018-07-31T04:50:44.409Z,24.37
2018-07-31T04:53:12.444Z,24.39
2018-07-31T04:55:40.464Z,24.48
2018-07-31T04:58:08.510Z,24.56
2018-07-31T05:00:36.480Z,24.59
2018-07-31T05:03:04.529Z,24.64
2018-07-31T05:05:32.543Z,24.70
2018-07-31T05:08:00.569Z,24.81
2018-07-31T05:10:28.548Z,24.84
2018-07-31T05:12:56.604Z,24.89
2018-07-31T05:15:24.661Z,24.95
2018-07-31T05:17:52.681Z,25.03
2018-07-31T05:20:20.692Z,25.16
2018-07-31T05:22:48.713Z,25.35
2018-07-31T05:25:16.883Z,25.69
2018-07-31T05:27:44.860Z,26.58
2018-07-31T05:30:12.960Z,28.23
2018-07-31T05:32:41.113Z,29.92
2018-07-31T05:35:09.812Z,31.22
2018-07-31T05:37:38.005Z,31.87
2018-07-31T05:40:06.972Z,31.72
2018-07-31T05:42:34.981Z,31.70
2018-07-31T05:45:02.969Z,32.58
2018-07-31T05:47:30.986Z,33.59
2018-07-31T05:49:58.972Z,34.39
2018-07-31T05:52:27.177Z,35.26
2018-07-31T05:54:55.231Z,36.26
2018-07-31T05:57:23.383Z,36.87
2018-07-31T05:59:51.552Z,37.41
2018-07-31T06:02:19.612Z,37.01
2018-07-31T06:04:47.677Z,37.28
2018-07-31T06:07:15.770Z,37.65
2018-07-31T06:09:43.757Z,38.32
2018-07-31T06:12:12.805Z,38.90
2018-07-31T06:14:40.856Z,39.56
2018-07-31T06:17:08.960Z,39.90
2018-07-31T06:19:38.057Z,40.14
2018-07-31T06:22:06.435Z,40.60
2018-07-31T06:24:34.509Z,40.53
2018-07-31T06:27:02.591Z,40.05
2018-07-31T06:29:30.512Z,39.83
2018-07-31T06:31:58.509Z,40.28
2018-07-31T06:34:26.608Z,40.14
2018-07-31T06:36:54.596Z,39.89
2018-07-31T06:39:22.587Z,39.23
2018-07-31T06:41:50.607Z,38.27
2018-07-31T06:44:18.596Z,37.92
2018-07-31T06:46:46.638Z,38.36
2018-07-31T06:49:14.648Z,39.00
2018-07-31T06:51:42.746Z,39.18
2018-07-31T06:54:10.748Z,40.09
2018-07-31T06:56:38.773Z,41.29
2018-07-31T06:59:06.716Z,42.32
2018-07-31T07:01:34.747Z,42.83
2018-07-31T07:04:02.741Z,42.76
2018-07-31T07:06:30.720Z,43.76
2018-07-31T07:08:58.697Z,43.68
2018-07-31T07:11:26.680Z,43.84
2018-07-31T07:13:54.704Z,44.05
2018-07-31T07:16:22.684Z,44.09
2018-07-31T07:18:50.672Z,44.07
2018-07-31T07:21:18.691Z,44.01
2018-07-31T07:23:46.841Z,43.25
2018-07-31T07:26:14.817Z,43.68
2018-07-31T07:28:42.784Z,42.60
2018-07-31T07:31:10.775Z,42.04
2018-07-31T07:33:38.828Z,41.34
2018-07-31T07:36:06.844Z,40.40
2018-07-31T07:38:34.832Z,39.38
2018-07-31T07:41:02.800Z,39.33
2018-07-31T07:43:30.788Z,39.25
2018-07-31T07:45:58.773Z,39.49
2018-07-31T07:48:26.858Z,38.87
2018-07-31T07:50:54.728Z,38.35
2018-07-31T07:53:22.756Z,38.25
2018-07-31T07:55:50.741Z,38.32
2018-07-31T07:58:18.724Z,38.16
2018-07-31T08:00:47.589Z,38.51
2018-07-31T08:03:15.572Z,39.00
2018-07-31T08:05:43.548Z,39.07
2018-07-31T08:08:11.817Z,39.44
2018-07-31T08:10:42.137Z,39.83
2018-07-31T08:13:10.160Z,40.11
2018-07-31T08:15:38.132Z,39.79
2018-07-31T08:18:06.116Z,39.80
2018-07-31T08:20:34.378Z,39.96
2018-07-31T08:23:02.356Z,40.35
2018-07-31T08:25:30.451Z,40.91
2018-07-31T08:27:58.436Z,41.40
2018-07-31T08:30:26.460Z,41.84
2018-07-31T08:32:54.595Z,41.32
2018-07-31T08:35:22.630Z,41.65
2018-07-31T08:37:50.709Z,41.01
2018-07-31T08:40:18.706Z,40.38
2018-07-31T08:42:46.748Z,40.28
2018-07-31T08:45:14.776Z,39.90
2018-07-31T08:47:42.884Z,39.42
2018-07-31T08:50:10.860Z,39.11
2018-07-31T08:52:38.845Z,39.05
2018-07-31T08:55:06.824Z,39.00
2018-07-31T08:57:34.817Z,38.71
2018-07-31T09:00:02.822Z,38.78
2018-07-31T09:02:30.924Z,39.27
2018-07-31T09:04:58.916Z,39.49
2018-07-31T09:07:26.884Z,39.65
2018-07-31T09:09:54.876Z,39.50
2018-07-31T09:12:22.888Z,39.79
2018-07-31T09:14:50.858Z,40.02
2018-07-31T09:17:18.832Z,38.89
2018-07-31T09:19:46.922Z,38.60
2018-07-31T09:22:14.967Z,38.75
2018-07-31T09:24:42.907Z,38.25
2018-07-31T09:27:11.041Z,38.39
2018-07-31T09:29:39.040Z,37.77
2018-07-31T09:32:07.032Z,37.84
2018-07-31T09:34:40.456Z,37.63
2018-07-31T09:37:08.432Z,37.36
2018-07-31T09:39:36.516Z,37.59
2018-07-31T09:42:04.543Z,36.95
2018-07-31T09:44:32.536Z,36.66
2018-07-31T09:47:00.517Z,36.66
2018-07-31T09:49:28.524Z,36.50
2018-07-31T09:51:56.552Z,36.42
2018-07-31T09:54:24.572Z,36.59
2018-07-31T09:56:52.962Z,36.68
2018-07-31T09:59:20.944Z,36.53
2018-07-31T10:01:48.939Z,36.66
2018-07-31T10:04:16.972Z,36.79
2018-07-31T10:06:44.969Z,36.65
2018-07-31T10:09:13.052Z,36.56
2018-07-31T10:11:41.057Z,36.22
2018-07-31T10:14:09.068Z,36.26
2018-07-31T10:16:37.130Z,36.13
2018-07-31T10:19:05.112Z,36.09
2018-07-31T10:21:33.212Z,36.27
2018-07-31T10:24:01.244Z,36.68
2018-07-31T10:26:29.200Z,36.90
2018-07-31T10:28:57.243Z,37.08
2018-07-31T10:31:25.224Z,36.99
2018-07-31T10:33:53.300Z,37.00
2018-07-31T10:36:21.358Z,37.20
2018-07-31T10:38:49.380Z,37.34
2018-07-31T10:41:17.423Z,37.79
2018-07-31T10:43:45.421Z,38.08
2018-07-31T10:46:13.431Z,38.51
2018-07-31T10:48:41.412Z,38.28
2018-07-31T10:51:09.412Z,38.42
2018-07-31T10:53:37.414Z,38.57
2018-07-31T10:56:05.584Z,38.47
2018-07-31T10:58:33.664Z,38.80
2018-07-31T11:01:01.661Z,38.34
2018-07-31T11:03:29.640Z,38.57
2018-07-31T11:05:57.730Z,38.48
2018-07-31T11:08:25.782Z,38.55
2018-07-31T11:10:53.820Z,38.59
2018-07-31T11:13:21.918Z,38.23
2018-07-31T11:15:49.799Z,37.76
2018-07-31T11:18:17.775Z,37.61
2018-07-31T11:20:45.781Z,37.63
2018-07-31T11:23:13.848Z,37.99
2018-07-31T11:25:41.897Z,38.03
2018-07-31T11:28:09.884Z,37.95
2018-07-31T11:30:37.909Z,38.03
2018-07-31T11:33:05.906Z,38.36
2018-07-31T11:35:33.872Z,38.15
2018-07-31T11:38:01.867Z,38.07
2018-07-31T11:40:29.903Z,38.17
2018-07-31T11:42:57.980Z,38.07
2018-07-31T11:45:26.118Z,38.10
2018-07-31T11:47:54.188Z,37.92
2018-07-31T11:50:22.345Z,37.96
2018-07-31T11:52:50.488Z,38.37
2018-07-31T11:55:18.536Z,38.20
2018-07-31T11:57:47.623Z,38.19
2018-07-31T12:00:15.611Z,38.40
2018-07-31T12:02:43.652Z,37.89
2018-07-31T12:05:11.749Z,38.28
2018-07-31T12:07:39.868Z,38.78
2018-07-31T12:10:07.920Z,38.81
2018-07-31T12:12:36.066Z,38.85
2018-07-31T12:15:04.564Z,38.68
2018-07-31T12:17:32.612Z,38.46
2018-07-31T12:20:00.598Z,38.56
2018-07-31T12:22:28.666Z,38.39
2018-07-31T12:24:56.653Z,38.39
2018-07-31T12:27:24.632Z,38.40
2018-07-31T12:29:52.686Z,38.53
2018-07-31T12:32:20.701Z,38.50
2018-07-31T12:34:48.684Z,38.28
2018-07-31T12:37:16.676Z,38.31
2018-07-31T12:39:44.676Z,38.30
2018-07-31T12:42:12.673Z,38.52
2018-07-31T12:44:40.776Z,38.66
2018-07-31T12:47:08.968Z,38.55
2018-07-31T12:49:37.200Z,38.65
2018-07-31T12:52:05.232Z,39.29
2018-07-31T12:54:33.217Z,39.58
2018-07-31T12:57:01.376Z,39.44
2018-07-31T12:59:29.532Z,39.80
2018-07-31T13:01:57.713Z,39.60
2018-07-31T13:04:25.732Z,39.94
2018-07-31T13:06:53.902Z,39.88
2018-07-31T13:09:21.873Z,39.71
2018-07-31T13:11:49.961Z,39.42
2018-07-31T13:14:18.033Z,38.87
2018-07-31T13:16:46.311Z,38.93
2018-07-31T13:19:14.409Z,38.89
2018-07-31T13:21:42.708Z,38.74
2018-07-31T13:24:10.769Z,39.08
2018-07-31T13:26:38.881Z,38.69
2018-07-31T13:29:07.037Z,39.04
2018-07-31T13:31:35.128Z,38.97
2018-07-31T13:34:03.260Z,39.04
2018-07-31T13:36:31.368Z,39.00
2018-07-31T13:38:59.500Z,38.59
2018-07-31T13:41:27.669Z,38.36
2018-07-31T13:43:56.090Z,38.39
2018-07-31T13:46:24.161Z,38.48
2018-07-31T13:48:52.310Z,38.86
2018-07-31T13:51:20.479Z,38.74
2018-07-31T13:53:48.550Z,38.99
2018-07-31T13:56:16.624Z,38.68
2018-07-31T13:58:45.817Z,38.97
2018-07-31T14:01:13.976Z,38.96
2018-07-31T14:03:41.978Z,39.17
2018-07-31T14:06:09.948Z,39.59
2018-07-31T14:08:38.630Z,39.72
2018-07-31T14:11:06.665Z,39.78
2018-07-31T14:13:34.664Z,39.64
2018-07-31T14:16:02.788Z,39.56
2018-07-31T14:18:30.842Z,39.48
2018-07-31T14:22:02.453Z,39.58
2018-07-31T14:24:30.569Z,39.70
2018-07-31T14:26:58.788Z,39.66
2018-07-31T14:29:26.756Z,40.06
2018-07-31T14:31:54.772Z,40.06
2018-07-31T14:34:22.800Z,39.36
2018-07-31T14:36:50.796Z,39.31
2018-07-31T14:39:18.794Z,38.63
2018-07-31T14:41:46.772Z,38.34
2018-07-31T14:44:14.770Z,38.37
2018-07-31T14:46:42.752Z,38.23
2018-07-31T14:49:10.762Z,38.41
2018-07-31T14:51:38.808Z,38.27
2018-07-31T14:54:06.969Z,38.15
2018-07-31T14:56:34.974Z,37.95
2018-07-31T14:59:02.959Z,37.72
2018-07-31T15:01:31.016Z,37.68
2018-07-31T15:03:59.037Z,37.85
2018-07-31T15:06:27.280Z,37.85
2018-07-31T15:08:55.342Z,37.25
2018-07-31T15:11:23.473Z,37.66
2018-07-31T15:13:51.651Z,37.87
2018-07-31T15:16:19.743Z,37.65
2018-07-31T15:18:47.740Z,37.68
2018-07-31T15:21:15.756Z,37.46
2018-07-31T15:23:43.726Z,37.48
2018-07-31T15:26:11.744Z,37.38
2018-07-31T15:28:39.770Z,37.54
2018-07-31T15:31:07.745Z,37.60
2018-07-31T15:33:35.840Z,37.86
2018-07-31T15:36:03.839Z,37.49
2018-07-31T15:38:31.869Z,37.51
2018-07-31T15:40:59.936Z,37.33
2018-07-31T15:43:27.977Z,37.31
2018-07-31T15:45:56.037Z,37.59
2018-07-31T15:48:24.517Z,37.62
2018-07-31T15:50:52.512Z,37.73
2018-07-31T15:53:20.512Z,37.58
2018-07-31T15:55:48.573Z,37.29
2018-07-31T15:58:16.590Z,37.27
2018-07-31T16:00:44.628Z,37.17
2018-07-31T16:03:12.680Z,37.32
2018-07-31T16:05:40.744Z,37.56
2018-07-31T16:08:08.713Z,37.20
2018-07-31T16:10:36.740Z,37.32
2018-07-31T16:13:04.733Z,37.22
2018-07-31T16:15:32.749Z,37.18
2018-07-31T16:18:00.809Z,36.96
2018-07-31T16:20:28.816Z,36.97
2018-07-31T16:22:56.881Z,36.66
2018-07-31T16:25:24.797Z,36.45
2018-07-31T16:27:52.808Z,35.97
2018-07-31T16:30:20.820Z,35.50
2018-07-31T16:32:48.793Z,35.51
2018-07-31T16:35:16.792Z,35.60
2018-07-31T16:37:44.841Z,35.46
2018-07-31T16:40:12.856Z,35.24
2018-07-31T16:42:40.986Z,35.02
2018-07-31T16:45:09.000Z,34.69
2018-07-31T16:47:37.150Z,34.95
2018-07-31T16:50:05.388Z,35.18
2018-07-31T16:52:33.362Z,34.99
2018-07-31T16:55:01.356Z,34.62
2018-07-31T16:57:29.332Z,34.26
2018-07-31T16:59:57.308Z,34.13
2018-07-31T17:02:25.456Z,33.99
2018-07-31T17:04:53.450Z,33.95
2018-07-31T17:07:21.445Z,33.87
2018-07-31T17:09:49.548Z,33.60
2018-07-31T17:12:17.596Z,33.29
2018-07-31T17:14:45.609Z,33.08
2018-07-31T17:17:13.669Z,33.21
2018-07-31T17:19:41.745Z,32.73
2018-07-31T17:22:09.756Z,32.49
2018-07-31T17:24:37.980Z,32.50
2018-07-31T17:27:06.011Z,32.14
2018-07-31T17:29:34.017Z,32.05
2018-07-31T17:32:02.162Z,32.01
2018-07-31T17:34:30.157Z,31.40
2018-07-31T17:36:58.174Z,31.02
2018-07-31T17:39:26.203Z,30.79
2018-07-31T17:41:54.268Z,30.56
2018-07-31T17:44:22.324Z,30.42
2018-07-31T17:46:50.684Z,30.44
2018-07-31T17:49:18.724Z,30.20
2018-07-31T17:51:46.740Z,30.08
2018-07-31T17:54:14.740Z,29.98
2018-07-31T17:56:42.769Z,29.97
2018-07-31T17:59:10.924Z,29.90
2018-07-31T18:01:39.062Z,29.91
2018-07-31T18:04:07.191Z,29.79
2018-07-31T18:06:35.176Z,29.81
2018-07-31T18:09:03.312Z,29.73
2018-07-31T18:11:31.313Z,29.71
2018-07-31T18:13:59.330Z,29.37
2018-07-31T18:16:27.385Z,29.14
2018-07-31T18:18:55.555Z,29.01
2018-07-31T18:21:23.612Z,28.65
2018-07-31T18:23:51.663Z,28.68
2018-07-31T18:26:19.668Z,28.63
2018-07-31T18:28:47.665Z,28.51
2018-07-31T18:31:15.753Z,28.46
2018-07-31T18:33:43.746Z,28.40
2018-07-31T18:36:11.747Z,28.52
2018-07-31T18:38:39.772Z,28.57
2018-07-31T18:41:07.900Z,28.50
2018-07-31T18:43:35.799Z,28.55
2018-07-31T18:46:03.896Z,28.19
2018-07-31T18:48:32.002Z,28.30
2018-07-31T18:51:00.057Z,28.35
2018-07-31T18:53:28.276Z,28.11
2018-07-31T18:55:56.517Z,27.97
2018-07-31T18:58:25.912Z,27.76
2018-07-31T19:00:54.558Z,27.46
2018-07-31T19:03:22.632Z,27.30
2018-07-31T19:05:50.652Z,27.29
2018-07-31T19:08:18.769Z,27.23
2018-07-31T19:10:46.964Z,27.21
2018-07-31T19:13:15.084Z,27.19
2018-07-31T19:15:43.289Z,27.12
2018-07-31T19:18:11.324Z,27.13
2018-07-31T19:20:39.551Z,27.03
2018-07-31T19:23:07.713Z,26.88
2018-07-31T19:25:35.772Z,26.64
2018-07-31T19:28:03.969Z,26.68
2018-07-31T19:30:31.956Z,26.67
2018-07-31T19:33:00.163Z,26.63
2018-07-31T19:35:28.322Z,26.53
2018-07-31T19:37:56.491Z,26.43
2018-07-31T19:40:25.137Z,26.24
2018-07-31T19:42:53.568Z,26.16
2018-07-31T19:45:21.831Z,26.02
2018-07-31T19:47:50.353Z,26.01
2018-07-31T19:50:18.552Z,25.79
2018-07-31T19:52:46.936Z,25.73
2018-07-31T19:55:14.989Z,25.77
2018-07-31T19:57:42.996Z,25.75
2018-07-31T20:00:11.028Z,25.60
2018-07-31T20:02:39.111Z,25.58
2018-07-31T20:05:07.426Z,25.45
2018-07-31T20:07:35.456Z,25.40
2018-07-31T20:10:03.531Z,25.53
2018-07-31T20:12:31.748Z,25.37
2018-07-31T20:14:59.696Z,25.33
2018-07-31T20:17:27.776Z,25.30
2018-07-31T20:19:55.794Z,25.33
2018-07-31T20:22:23.852Z,25.41
2018-07-31T20:24:52.112Z,25.41
2018-07-31T20:27:20.156Z,25.41
2018-07-31T20:29:48.188Z,25.30
2018-07-31T20:32:16.434Z,25.16
2018-07-31T20:34:45.547Z,25.03
2018-07-31T20:37:13.661Z,25.10
2018-07-31T20:39:41.793Z,24.98
2018-07-31T20:42:09.937Z,24.96
2018-07-31T20:44:37.992Z,24.95
2018-07-31T20:47:06.178Z,24.83
2018-07-31T20:49:34.291Z,24.65
2018-07-31T20:52:02.389Z,24.67
2018-07-31T20:54:30.399Z,24.46
2018-07-31T20:56:58.444Z,24.43
2018-07-31T20:59:26.619Z,24.47
2018-07-31T21:01:54.753Z,24.42
2018-07-31T21:04:23.100Z,24.24
2018-07-31T21:06:51.156Z,24.13
2018-07-31T21:09:21.185Z,24.06
2018-07-31T21:11:49.989Z,24.15
2018-07-31T21:14:18.250Z,23.97
2018-07-31T21:16:46.417Z,23.84
2018-07-31T21:19:14.480Z,23.76
2018-07-31T21:21:42.540Z,23.75
2018-07-31T21:24:10.604Z,23.64
2018-07-31T21:26:38.775Z,23.51
2018-07-31T21:29:06.800Z,23.48
2018-07-31T21:31:34.828Z,23.58
2018-07-31T21:34:02.961Z,23.60
2018-07-31T21:36:31.096Z,23.55
2018-07-31T21:38:59.120Z,23.53
2018-07-31T21:41:27.321Z,23.53
2018-07-31T21:43:55.424Z,23.49
2018-07-31T21:46:23.556Z,23.50
2018-07-31T21:48:51.719Z,23.53
2018-07-31T21:51:19.866Z,23.45
2018-07-31T21:53:47.956Z,23.48
2018-07-31T21:56:16.084Z,23.53
2018-07-31T21:58:44.142Z,23.54
2018-07-31T22:01:12.293Z,23.51
2018-07-31T22:03:40.368Z,23.55
2018-07-31T22:06:08.552Z,23.62
2018-07-31T22:08:37.358Z,23.55
2018-07-31T22:11:05.630Z,23.41
2018-07-31T22:13:33.637Z,23.52
2018-07-31T22:16:01.732Z,23.47
2018-07-31T22:18:29.744Z,23.25
2018-07-31T22:20:57.761Z,23.26
2018-07-31T22:23:25.936Z,23.37
2018-07-31T22:25:53.964Z,23.05
2018-07-31T22:28:22.046Z,23.13
2018-07-31T22:30:50.048Z,23.03
2018-07-31T22:33:18.077Z,23.06
2018-07-31T22:35:46.111Z,22.98
2018-07-31T22:38:14.147Z,22.86
2018-07-31T22:40:42.192Z,22.90
2018-07-31T22:43:10.234Z,22.98
2018-07-31T22:45:38.225Z,23.01
2018-07-31T22:48:06.249Z,22.97
2018-07-31T22:50:34.389Z,22.91
2018-07-31T22:53:02.416Z,23.00
2018-07-31T22:55:30.501Z,23.03
2018-07-31T22:57:58.695Z,23.00
2018-07-31T23:00:26.661Z,23.01
2018-07-31T23:02:54.660Z,22.95
2018-07-31T23:05:22.652Z,22.72
2018-07-31T23:07:50.648Z,22.56
2018-07-31T23:10:20.257Z,22.55
2018-07-31T23:12:49.248Z,22.54
2018-07-31T23:15:17.254Z,22.60
2018-07-31T23:17:45.244Z,22.57
2018-07-31T23:20:13.253Z,22.57
2018-07-31T23:22:44.141Z,22.61
2018-07-31T23:25:12.120Z,22.63
2018-07-31T23:30:08.105Z,22.54
2018-07-31T23:32:36.608Z,22.52
2018-07-31T23:35:04.883Z,22.54
2018-07-31T23:37:32.964Z,22.59
2018-07-31T23:40:02.046Z,22.54
2018-07-31T23:42:30.506Z,22.66
2018-07-31T23:44:58.523Z,22.68
2018-07-31T23:47:27.584Z,22.69
2018-07-31T23:49:55.696Z,22.81
2018-07-31T23:52:23.715Z,22.73
2018-07-31T23:54:51.786Z,22.75
2018-07-31T23:57:19.760Z,22.75
2018-07-31T23:59:47.776Z,22.66
